createdAt,value
2019-01-20T00:00:12.446Z,30.83
2019-01-20T00:02:40.866Z,29.87
2019-01-20T00:05:12.018Z,28.53
2019-01-20T00:07:42.141Z,29.33
2019-01-20T00:10:12.692Z,27.40
2019-01-20T00:12:41.209Z,29.80
2019-01-20T00:15:12.473Z,31.27
2019-01-20T00:17:42.550Z,26.17
2019-01-20T00:20:11.054Z,28.07
2019-01-20T00:22:39.493Z,28.23
2019-01-20T00:25:09.736Z,29.47
2019-01-20T00:27:38.234Z,30.00
2019-01-20T00:30:15.047Z,26.80
2019-01-20T00:32:43.418Z,28.20
2019-01-20T00:35:11.918Z,27.30
2019-01-20T00:37:40.288Z,26.83
2019-01-20T00:40:11.945Z,27.23
2019-01-20T00:42:40.321Z,28.00
2019-01-20T00:45:14.530Z,26.27
2019-01-20T00:47:42.925Z,23.00
2019-01-20T00:50:13.072Z,27.87
2019-01-20T00:52:41.458Z,25.33
2019-01-20T00:55:12.784Z,24.63
2019-01-20T00:57:41.934Z,26.87
2019-01-20T01:00:19.333Z,23.60
2019-01-20T01:02:47.717Z,23.53
2019-01-20T01:05:16.190Z,24.43
2019-01-20T01:07:45.270Z,27.67
2019-01-20T01:10:13.748Z,24.40
2019-01-20T01:12:42.121Z,27.03
2019-01-20T01:15:11.544Z,27.77
2019-01-20T01:17:39.928Z,26.37
2019-01-20T01:20:13.348Z,28.10
2019-01-20T01:22:41.729Z,28.20
2019-01-20T01:25:11.778Z,40.13
2019-01-20T01:27:40.161Z,47.50
2019-01-20T01:30:14.790Z,63.10
2019-01-20T01:32:43.166Z,58.90
2019-01-20T01:35:11.580Z,46.13
2019-01-20T01:37:40.033Z,44.80
2019-01-20T01:40:13.584Z,43.47
2019-01-20T01:42:41.967Z,34.87
2019-01-20T01:45:15.844Z,36.00
2019-01-20T01:47:44.256Z,30.30
2019-01-20T01:50:13.488Z,32.17
2019-01-20T01:52:41.868Z,28.00
2019-01-20T01:55:11.222Z,32.90
2019-01-20T01:57:39.596Z,28.87
2019-01-20T02:00:14.575Z,30.37
2019-01-20T02:02:43.026Z,35.30
2019-01-20T02:05:11.408Z,37.00
2019-01-20T02:07:39.813Z,33.67
2019-01-20T02:10:11.533Z,33.90
2019-01-20T02:12:40.645Z,31.67
2019-01-20T02:15:11.060Z,32.77
2019-01-20T02:17:39.476Z,31.67
2019-01-20T02:20:11.211Z,29.97
2019-01-20T02:22:39.584Z,38.10
2019-01-20T02:25:07.997Z,32.80
2019-01-20T02:27:36.376Z,35.93
2019-01-20T02:30:18.657Z,30.80
2019-01-20T02:32:54.583Z,29.93
2019-01-20T02:35:23.218Z,38.87
2019-01-20T02:37:51.593Z,34.20
2019-01-20T02:40:20.004Z,37.80
2019-01-20T02:42:48.460Z,33.70
2019-01-20T02:45:16.911Z,34.67
2019-01-20T02:47:45.324Z,30.60
2019-01-20T02:50:15.645Z,31.17
2019-01-20T02:52:44.058Z,33.90
2019-01-20T02:55:12.437Z,24.87
2019-01-20T02:57:41.021Z,29.53
2019-01-20T03:00:15.187Z,27.57
2019-01-20T03:02:43.614Z,30.63
2019-01-20T03:05:12.059Z,30.43
2019-01-20T03:07:40.467Z,37.07
2019-01-20T03:10:15.406Z,31.70
2019-01-20T03:12:43.810Z,32.43
2019-01-20T03:15:13.633Z,30.20
2019-01-20T03:17:42.037Z,36.37
2019-01-20T03:20:13.458Z,30.70
2019-01-20T03:22:41.868Z,37.07
2019-01-20T03:25:12.686Z,38.33
2019-01-20T03:27:41.102Z,29.80
2019-01-20T03:30:20.859Z,32.33
2019-01-20T03:32:49.286Z,29.80
2019-01-20T03:35:21.060Z,28.77
2019-01-20T03:37:49.497Z,29.03
2019-01-20T03:40:19.507Z,27.30
2019-01-20T03:42:48.282Z,32.13
2019-01-20T03:45:18.493Z,28.37
2019-01-20T03:47:46.900Z,30.30
2019-01-20T03:50:16.717Z,30.80
2019-01-20T03:52:45.201Z,30.73
2019-01-20T03:55:21.038Z,32.70
2019-01-20T03:57:53.284Z,30.03
2019-01-20T04:00:32.193Z,27.37
2019-01-20T04:03:00.855Z,35.80
2019-01-20T04:05:29.237Z,25.87
2019-01-20T04:07:57.628Z,31.63
2019-01-20T04:10:26.041Z,33.63
2019-01-20T04:12:54.421Z,30.23
2019-01-20T04:15:23.846Z,29.77
2019-01-20T04:17:52.217Z,34.63
2019-01-20T04:20:20.703Z,29.67
2019-01-20T04:22:49.107Z,34.33
2019-01-20T04:25:19.169Z,27.53
2019-01-20T04:27:47.545Z,35.33
2019-01-20T04:30:18.851Z,31.57
2019-01-20T04:32:47.293Z,35.90
2019-01-20T04:35:15.672Z,33.00
2019-01-20T04:37:44.087Z,28.03
2019-01-20T04:40:20.345Z,30.00
2019-01-20T04:42:48.757Z,26.67
2019-01-20T04:45:17.129Z,32.33
2019-01-20T04:47:45.559Z,31.50
2019-01-20T04:50:16.568Z,31.47
2019-01-20T04:52:44.941Z,33.57
2019-01-20T04:55:14.589Z,34.80
2019-01-20T04:57:44.604Z,34.57
2019-01-20T05:00:18.650Z,34.47
2019-01-20T05:02:47.017Z,33.73
2019-01-20T05:05:15.433Z,32.97
2019-01-20T05:07:43.818Z,32.93
2019-01-20T05:10:19.526Z,32.63
2019-01-20T05:12:47.913Z,29.23
2019-01-20T05:15:21.389Z,32.03
2019-01-20T05:17:49.765Z,32.63
2019-01-20T05:20:18.283Z,34.70
2019-01-20T05:22:46.685Z,30.07
2019-01-20T05:25:15.078Z,30.80
2019-01-20T05:27:43.486Z,30.10
2019-01-20T05:30:23.621Z,30.70
2019-01-20T05:32:52.061Z,26.67
2019-01-20T05:35:20.457Z,32.13
2019-01-20T05:37:48.881Z,31.10
2019-01-20T05:40:19.189Z,26.97
2019-01-20T05:42:47.671Z,31.87
2019-01-20T05:45:20.771Z,32.93
2019-01-20T05:47:49.190Z,34.23
2019-01-20T05:50:17.561Z,33.03
2019-01-20T05:52:45.970Z,27.07
2019-01-20T05:55:15.089Z,26.33
2019-01-20T05:57:43.498Z,28.83
2019-01-20T06:00:14.781Z,30.83
2019-01-20T06:02:43.192Z,32.03
2019-01-20T06:05:11.639Z,38.17
2019-01-20T06:07:40.080Z,31.13
2019-01-20T06:10:11.104Z,25.43
2019-01-20T06:12:39.515Z,27.77
2019-01-20T06:15:13.944Z,27.70
2019-01-20T06:17:42.355Z,33.10
2019-01-20T06:20:10.732Z,33.10
2019-01-20T06:22:39.140Z,31.83
2019-01-20T06:25:08.657Z,27.60
2019-01-20T06:27:37.062Z,31.07
2019-01-20T06:30:11.501Z,30.93
2019-01-20T06:32:39.907Z,28.90
2019-01-20T06:35:08.289Z,31.53
2019-01-20T06:37:36.689Z,24.70
2019-01-20T06:40:06.843Z,33.27
2019-01-20T06:42:35.221Z,29.30
2019-01-20T06:45:05.213Z,30.53
2019-01-20T06:47:33.663Z,28.63
2019-01-20T06:50:02.007Z,31.03
2019-01-20T06:52:30.405Z,33.30
2019-01-20T06:54:58.780Z,33.67
2019-01-20T06:57:27.196Z,40.17
2019-01-20T06:59:55.568Z,31.17
2019-01-20T07:02:23.940Z,32.50
2019-01-20T07:04:52.564Z,30.80
2019-01-20T07:07:20.941Z,31.17
2019-01-20T07:09:49.361Z,26.70
2019-01-20T07:12:17.733Z,31.33
2019-01-20T07:14:46.144Z,35.40
2019-01-20T07:17:14.522Z,32.20
2019-01-20T07:19:42.932Z,34.87
2019-01-20T07:22:11.345Z,37.33
2019-01-20T07:24:39.720Z,34.40
2019-01-20T07:27:08.197Z,28.43
2019-01-20T07:29:36.635Z,37.63
2019-01-20T07:32:04.985Z,45.87
2019-01-20T07:34:33.918Z,42.57
2019-01-20T07:37:02.321Z,46.43
2019-01-20T07:39:30.963Z,36.13
2019-01-20T07:42:00.953Z,38.53
2019-01-20T07:44:30.833Z,36.23
2019-01-20T07:46:59.217Z,34.87
2019-01-20T07:49:27.907Z,38.53
2019-01-20T07:51:56.245Z,45.47
2019-01-20T07:54:24.649Z,57.63
2019-01-20T07:56:53.061Z,55.07
2019-01-20T07:59:21.450Z,44.50
2019-01-20T08:01:49.830Z,35.90
2019-01-20T08:04:18.245Z,38.53
2019-01-20T08:06:46.662Z,43.90
2019-01-20T08:09:15.058Z,45.70
2019-01-20T08:11:43.461Z,47.10
2019-01-20T08:14:11.845Z,47.27
2019-01-20T08:16:40.268Z,46.47
2019-01-20T08:19:08.646Z,54.13
2019-01-20T08:21:37.061Z,54.07
2019-01-20T08:24:05.455Z,53.43
2019-01-20T08:26:33.829Z,43.27
2019-01-20T08:29:02.238Z,44.33
2019-01-20T08:31:30.613Z,40.10
2019-01-20T08:33:59.027Z,40.20
2019-01-20T08:36:27.398Z,39.43
2019-01-20T08:38:55.807Z,36.67
2019-01-20T08:41:24.173Z,29.53
2019-01-20T08:43:52.577Z,33.03
2019-01-20T08:46:27.218Z,30.10
2019-01-20T08:48:55.617Z,30.33
2019-01-20T08:51:24.058Z,28.13
2019-01-20T08:53:52.471Z,31.97
2019-01-20T08:56:20.838Z,34.13
2019-01-20T08:58:49.246Z,26.97
2019-01-20T09:01:17.617Z,27.53
2019-01-20T09:03:46.033Z,31.43
2019-01-20T09:06:14.484Z,29.80
2019-01-20T09:08:42.900Z,31.07
2019-01-20T09:11:11.276Z,31.07
2019-01-20T09:13:40.259Z,29.70
2019-01-20T09:16:08.646Z,33.13
2019-01-20T09:18:37.017Z,34.00
2019-01-20T09:21:05.430Z,27.23
2019-01-20T09:23:33.809Z,32.07
2019-01-20T09:26:02.221Z,33.87
2019-01-20T09:28:30.609Z,29.97
2019-01-20T09:30:59.022Z,28.47
2019-01-20T09:33:27.394Z,29.80
2019-01-20T09:35:55.815Z,31.70
2019-01-20T09:38:24.193Z,27.87
2019-01-20T09:40:52.577Z,32.47
2019-01-20T09:43:20.986Z,31.17
2019-01-20T09:45:50.234Z,29.43
2019-01-20T09:48:18.649Z,31.87
2019-01-20T09:50:47.075Z,31.23
2019-01-20T09:53:15.493Z,35.93
2019-01-20T09:55:43.869Z,34.23
2019-01-20T09:58:12.249Z,41.10
2019-01-20T10:00:40.665Z,33.70
2019-01-20T10:03:16.037Z,58.47
2019-01-20T10:05:39.088Z,75.53
2019-01-20T10:08:07.474Z,46.87
2019-01-20T10:10:35.887Z,32.67
2019-01-20T10:13:04.256Z,36.87
2019-01-20T10:15:32.669Z,37.60
2019-01-20T10:18:01.053Z,36.00
2019-01-20T10:20:31.607Z,32.93
2019-01-20T10:23:00.062Z,32.63
2019-01-20T10:25:28.470Z,30.23
2019-01-20T10:27:56.853Z,31.00
2019-01-20T10:30:33.765Z,29.60
2019-01-20T10:33:03.471Z,28.87
2019-01-20T10:35:33.897Z,32.87
2019-01-20T10:38:04.148Z,32.87
2019-01-20T10:40:32.531Z,35.43
2019-01-20T10:43:00.933Z,31.53
2019-01-20T10:45:29.305Z,31.63
2019-01-20T10:47:57.738Z,33.00
2019-01-20T10:50:26.152Z,33.90
2019-01-20T10:52:54.574Z,31.00
2019-01-20T10:55:22.946Z,36.23
2019-01-20T10:57:51.349Z,33.37
2019-01-20T11:00:28.945Z,33.20
2019-01-20T11:02:57.356Z,35.90
2019-01-20T11:05:30.322Z,32.83
2019-01-20T11:07:55.797Z,34.63
2019-01-20T11:10:24.197Z,33.07
2019-01-20T11:12:52.601Z,35.87
2019-01-20T11:15:23.748Z,36.50
2019-01-20T11:17:52.987Z,34.90
2019-01-20T11:20:23.195Z,36.33
2019-01-20T11:22:51.674Z,38.67
2019-01-20T11:25:34.172Z,38.83
2019-01-20T11:28:02.594Z,38.60
2019-01-20T11:30:30.972Z,37.67
2019-01-20T11:32:59.348Z,37.27
2019-01-20T11:35:30.279Z,38.50
2019-01-20T11:37:58.782Z,37.93
2019-01-20T11:40:27.249Z,38.60
2019-01-20T11:42:55.619Z,39.93
2019-01-20T11:45:29.148Z,39.10
2019-01-20T11:47:57.575Z,38.23
2019-01-20T11:50:26.010Z,36.97
2019-01-20T11:52:54.532Z,35.37
2019-01-20T11:55:24.252Z,33.70
2019-01-20T11:57:52.846Z,36.07
2019-01-20T12:00:34.370Z,36.83
2019-01-20T12:03:03.033Z,37.53
2019-01-20T12:05:32.873Z,40.00
2019-01-20T12:08:01.374Z,38.50
2019-01-20T12:10:29.813Z,34.47
2019-01-20T12:12:59.866Z,36.17
2019-01-20T12:15:28.251Z,42.27
2019-01-20T12:17:56.667Z,34.73
2019-01-20T12:20:25.124Z,38.00
2019-01-20T12:22:54.274Z,38.20
2019-01-20T12:25:22.697Z,39.67
2019-01-20T12:27:51.947Z,34.60
2019-01-20T12:30:35.087Z,37.57
2019-01-20T12:33:04.024Z,35.37
2019-01-20T12:35:32.530Z,40.43
2019-01-20T12:38:00.919Z,38.13
2019-01-20T12:40:32.842Z,38.80
2019-01-20T12:43:02.260Z,35.30
2019-01-20T12:45:31.096Z,40.27
2019-01-20T12:48:00.600Z,36.53
2019-01-20T12:50:29.110Z,38.97
2019-01-20T12:52:57.597Z,41.80
2019-01-20T12:55:25.981Z,38.40
2019-01-20T12:57:54.515Z,41.67
2019-01-20T13:00:26.819Z,39.53
2019-01-20T13:02:56.658Z,37.17
2019-01-20T13:05:25.030Z,38.20
2019-01-20T13:07:53.638Z,39.33
2019-01-20T13:10:23.732Z,41.60
2019-01-20T13:12:52.841Z,36.93
2019-01-20T13:15:24.816Z,35.87
2019-01-20T13:17:54.216Z,40.43
2019-01-20T13:20:25.412Z,37.73
2019-01-20T13:22:54.372Z,35.67
2019-01-20T13:25:27.687Z,37.57
2019-01-20T13:27:57.214Z,34.90
2019-01-20T13:30:27.330Z,39.33
2019-01-20T13:32:56.839Z,38.97
2019-01-20T13:35:25.949Z,36.77
2019-01-20T13:38:00.646Z,36.03
2019-01-20T13:40:48.676Z,34.53
2019-01-20T13:43:17.484Z,40.53
2019-01-20T13:45:46.092Z,35.20
2019-01-20T13:48:14.736Z,43.63
2019-01-20T13:50:43.185Z,39.50
2019-01-20T13:53:11.745Z,40.03
2019-01-20T13:55:40.419Z,41.63
2019-01-20T13:58:09.051Z,39.90
2019-01-20T14:00:37.587Z,37.23
2019-01-20T14:03:06.201Z,47.13
2019-01-20T14:05:35.404Z,44.07
2019-01-20T14:08:04.873Z,44.07
2019-01-20T14:10:33.413Z,45.17
2019-01-20T14:13:03.712Z,44.73
2019-01-20T14:15:32.775Z,43.70
2019-01-20T14:18:01.364Z,43.23
2019-01-20T14:20:29.937Z,48.00
2019-01-20T14:22:58.593Z,41.57
2019-01-20T14:25:30.427Z,35.57
2019-01-20T14:27:58.901Z,41.20
2019-01-20T14:30:31.961Z,38.30
2019-01-20T14:33:00.445Z,40.63
2019-01-20T14:35:29.723Z,39.73
2019-01-20T14:37:58.313Z,43.23
2019-01-20T14:40:27.780Z,40.23
2019-01-20T14:42:56.355Z,43.67
2019-01-20T14:45:26.649Z,50.37
2019-01-20T14:47:56.532Z,37.43
2019-01-20T14:50:29.395Z,42.20
2019-01-20T14:52:57.853Z,39.20
2019-01-20T14:55:27.387Z,46.33
2019-01-20T14:57:55.970Z,47.57
2019-01-20T15:00:34.362Z,40.97
2019-01-20T15:03:03.172Z,43.30
2019-01-20T15:05:31.774Z,49.40
2019-01-20T15:08:00.106Z,40.50
2019-01-20T15:10:28.675Z,43.07
2019-01-20T15:12:57.127Z,50.53
2019-01-20T15:15:34.063Z,47.27
2019-01-20T15:18:03.022Z,40.90
2019-01-20T15:20:32.056Z,40.53
2019-01-20T15:23:00.953Z,47.03
2019-01-20T15:25:30.730Z,50.67
2019-01-20T15:28:01.535Z,44.70
2019-01-20T15:30:34.039Z,44.30
2019-01-20T15:33:04.285Z,47.23
2019-01-20T15:35:33.343Z,43.13
2019-01-20T15:38:01.814Z,43.00
2019-01-20T15:40:30.350Z,48.63
2019-01-20T15:42:58.938Z,45.63
2019-01-20T15:45:27.503Z,43.93
2019-01-20T15:47:56.105Z,44.23
2019-01-20T15:50:27.797Z,48.87
2019-01-20T15:52:58.441Z,48.50
2019-01-20T15:55:27.023Z,64.03
2019-01-20T15:57:55.596Z,56.00
2019-01-20T16:00:26.745Z,55.30
2019-01-20T16:02:55.329Z,62.27
2019-01-20T16:05:24.526Z,55.83
2019-01-20T16:07:53.142Z,57.77
2019-01-20T16:10:21.597Z,51.50
2019-01-20T16:12:50.166Z,47.30
2019-01-20T16:15:24.823Z,56.30
2019-01-20T16:17:52.754Z,58.27
2019-01-20T16:20:21.200Z,54.97
2019-01-20T16:22:49.704Z,56.43
2019-01-20T16:25:23.425Z,53.70
2019-01-20T16:27:51.919Z,67.13
2019-01-20T16:30:23.237Z,60.03
2019-01-20T16:32:51.625Z,62.47
2019-01-20T16:35:21.661Z,55.37
2019-01-20T16:37:50.043Z,57.60
2019-01-20T16:40:20.965Z,58.47
2019-01-20T16:42:49.445Z,58.83
2019-01-20T16:45:42.166Z,54.03
2019-01-20T16:48:06.452Z,63.50
2019-01-20T16:50:34.972Z,54.97
2019-01-20T16:53:03.378Z,61.20
2019-01-20T16:55:31.884Z,53.67
2019-01-20T16:58:00.339Z,52.70
2019-01-20T17:00:34.788Z,71.23
2019-01-20T17:03:03.179Z,84.60
2019-01-20T17:05:31.581Z,96.57
2019-01-20T17:08:00.138Z,97.70
2019-01-20T17:10:37.059Z,76.03
2019-01-20T17:13:06.125Z,58.07
2019-01-20T17:15:39.907Z,50.07
2019-01-20T17:18:09.414Z,49.10
2019-01-20T17:20:37.840Z,53.00
2019-01-20T17:23:06.391Z,54.93
2019-01-20T17:25:34.832Z,47.77
2019-01-20T17:28:03.250Z,55.10
2019-01-20T17:30:36.354Z,52.40
2019-01-20T17:33:06.588Z,49.30
2019-01-20T17:35:35.075Z,49.80
2019-01-20T17:38:03.446Z,93.80
2019-01-20T17:40:31.829Z,83.67
2019-01-20T17:43:00.250Z,89.27
2019-01-20T17:45:34.796Z,73.67
2019-01-20T17:48:03.214Z,87.23
2019-01-20T17:50:37.128Z,83.57
2019-01-20T17:53:06.855Z,84.50
2019-01-20T17:55:35.521Z,73.67
2019-01-20T17:58:04.610Z,64.93
2019-01-20T18:00:44.834Z,72.97
2019-01-20T18:03:13.251Z,70.03
2019-01-20T18:05:41.692Z,63.63
2019-01-20T18:08:10.103Z,60.53
2019-01-20T18:10:38.488Z,68.47
2019-01-20T18:13:06.864Z,65.10
2019-01-20T18:15:35.349Z,62.97
2019-01-20T18:18:03.726Z,61.97
2019-01-20T18:20:33.503Z,48.27
2019-01-20T18:23:01.881Z,54.77
2019-01-20T18:25:30.253Z,50.53
2019-01-20T18:27:58.660Z,54.53
2019-01-20T18:30:29.084Z,67.90
2019-01-20T18:32:57.492Z,71.03
2019-01-20T18:35:27.430Z,61.63
2019-01-20T18:37:55.972Z,62.60
2019-01-20T18:40:25.608Z,66.90
2019-01-20T18:42:53.996Z,61.37
2019-01-20T18:45:25.604Z,60.47
2019-01-20T18:47:53.983Z,61.20
2019-01-20T18:50:33.984Z,77.47
2019-01-20T18:53:02.369Z,76.43
2019-01-20T18:55:30.741Z,72.00
2019-01-20T18:57:59.149Z,65.77
2019-01-20T19:00:30.248Z,58.20
2019-01-20T19:02:58.665Z,59.87
2019-01-20T19:05:27.045Z,48.57
2019-01-20T19:07:55.716Z,69.67
2019-01-20T19:10:24.247Z,61.67
2019-01-20T19:12:54.659Z,55.33
2019-01-20T19:15:25.352Z,55.63
2019-01-20T19:17:53.727Z,54.43
2019-01-20T19:20:24.737Z,61.37
2019-01-20T19:22:55.820Z,56.70
2019-01-20T19:25:27.064Z,61.33
2019-01-20T19:27:55.468Z,61.50
2019-01-20T19:30:29.278Z,82.43
2019-01-20T19:32:57.644Z,65.97
2019-01-20T19:35:26.194Z,73.57
2019-01-20T19:37:54.644Z,70.53
2019-01-20T19:40:23.020Z,64.17
2019-01-20T19:42:51.575Z,70.87
2019-01-20T19:45:21.134Z,68.80
2019-01-20T19:47:49.636Z,78.87
2019-01-20T19:50:18.248Z,79.63
2019-01-20T19:52:46.682Z,77.57
2019-01-20T19:55:27.228Z,78.07
2019-01-20T19:57:55.656Z,79.17
2019-01-20T20:00:40.819Z,69.30
2019-01-20T20:03:05.310Z,64.73
2019-01-20T20:05:33.680Z,60.17
2019-01-20T20:08:02.071Z,78.17
2019-01-20T20:10:30.496Z,79.97
2019-01-20T20:12:58.878Z,76.97
2019-01-20T20:15:28.559Z,77.57
2019-01-20T20:17:57.214Z,83.50
2019-01-20T20:20:25.626Z,88.80
2019-01-20T20:22:54.001Z,72.83
2019-01-20T20:25:24.359Z,77.17
2019-01-20T20:27:53.365Z,74.93
2019-01-20T20:30:30.160Z,77.63
2019-01-20T20:32:58.609Z,79.50
2019-01-20T20:35:27.402Z,75.70
2019-01-20T20:37:56.315Z,78.97
2019-01-20T20:40:24.669Z,71.83
2019-01-20T20:42:53.088Z,71.13
2019-01-20T20:45:24.297Z,84.60
2019-01-20T20:47:52.864Z,68.03
2019-01-20T20:50:21.449Z,72.43
2019-01-20T20:52:50.873Z,67.07
2019-01-20T20:55:19.218Z,70.40
2019-01-20T20:57:47.629Z,78.17
2019-01-20T21:00:19.418Z,71.57
2019-01-20T21:02:47.862Z,70.90
2019-01-20T21:05:16.221Z,84.23
2019-01-20T21:07:44.735Z,67.73
2019-01-20T21:10:17.362Z,73.10
2019-01-20T21:12:45.737Z,81.27
2019-01-20T21:15:16.205Z,78.43
2019-01-20T21:17:48.364Z,78.57
2019-01-20T21:20:20.306Z,69.37
2019-01-20T21:22:48.685Z,69.23
2019-01-20T21:25:17.101Z,69.93
2019-01-20T21:27:45.483Z,74.27
2019-01-20T21:30:16.816Z,70.67
2019-01-20T21:32:45.377Z,66.50
2019-01-20T21:35:13.947Z,70.60
2019-01-20T21:37:42.303Z,71.50
2019-01-20T21:40:13.141Z,72.43
2019-01-20T21:42:41.512Z,73.70
2019-01-20T21:45:12.081Z,65.37
2019-01-20T21:47:40.454Z,71.73
2019-01-20T21:50:18.045Z,61.83
2019-01-20T21:52:46.427Z,67.63
2019-01-20T21:55:14.795Z,68.57
2019-01-20T21:57:43.280Z,80.13
2019-01-20T22:00:15.398Z,78.03
2019-01-20T22:02:45.004Z,182.17
2019-01-20T22:05:13.494Z,176.97
2019-01-20T22:07:41.872Z,124.90
2019-01-20T22:10:13.052Z,138.60
2019-01-20T22:12:41.526Z,101.47
2019-01-20T22:15:11.089Z,86.87
2019-01-20T22:17:39.492Z,113.10
2019-01-20T22:20:11.961Z,110.53
2019-01-20T22:22:42.108Z,102.80
2019-01-20T22:25:11.718Z,96.40
2019-01-20T22:27:40.185Z,105.77
2019-01-20T22:30:23.576Z,90.10
2019-01-20T22:32:51.882Z,121.50
2019-01-20T22:35:20.799Z,104.00
2019-01-20T22:37:49.618Z,103.83
2019-01-20T22:40:19.041Z,82.20
2019-01-20T22:42:48.978Z,80.73
2019-01-20T22:45:23.277Z,90.57
2019-01-20T22:47:52.548Z,87.53
2019-01-20T22:50:23.247Z,96.87
2019-01-20T22:52:52.766Z,75.90
2019-01-20T22:55:21.263Z,78.80
2019-01-20T22:57:49.656Z,78.17
2019-01-20T23:00:31.512Z,82.00
2019-01-20T23:02:59.820Z,75.10
2019-01-20T23:05:28.499Z,86.47
2019-01-20T23:07:56.884Z,88.00
2019-01-20T23:10:25.273Z,76.93
2019-01-20T23:12:53.700Z,92.80
2019-01-20T23:15:22.098Z,109.40
2019-01-20T23:17:50.795Z,113.13
2019-01-20T23:20:19.142Z,94.63
2019-01-20T23:22:47.562Z,91.17
2019-01-20T23:25:15.975Z,82.57
2019-01-20T23:27:44.433Z,113.07
2019-01-20T23:30:14.813Z,95.70
2019-01-20T23:32:43.266Z,99.77
2019-01-20T23:35:11.748Z,75.83
2019-01-20T23:37:40.164Z,70.27
2019-01-20T23:40:13.533Z,73.83
2019-01-20T23:42:41.950Z,73.30
2019-01-20T23:45:11.857Z,94.10
2019-01-20T23:47:40.299Z,88.40
2019-01-20T23:50:13.164Z,89.07
2019-01-20T23:52:41.782Z,67.77
2019-01-20T23:55:11.784Z,83.13
2019-01-20T23:57:40.161Z,83.63
